Heat Index SAI AWOS Graphical Display Untitled Document
Ulysses Airport (ULS) Grant County, Kansas
280
12:28
18/10/20
07
N/A
N/A
30.38
N/A
3067
32(F), 0(C)
30(F), -1(C)
25 F
93%
CLR
10
N/A
N/A
N/A
12:28 zulu Wind 280 at 07 Knots, Altimeter 30.38
METAR KULS 201228Z AUTO 28007KT 10SM CLR 00/M01 A3038 A02
METAR:
FAA Disclaimer--Advisory Use ONLY, not for flight info-- 6/29/2009: FBO 620-356-4528 FUEL- 100LL $3.79self-serve or $3.90 for full service, Jet A $3.21 full service. AWOS 118.95mhz, 620-424-3747. Pilots with cellphones (smartphones) can now view awos at http://www.saiawos3.com/ULS
INFO:
Wind Direction:
Wind Speed:
Wind Gust:
Wind Variable:
Altimeter:
Dens Alt:
Elev:
Temp:
Dwpt:
Wind Chill
Rel Humidity:
Ceiling:
Visibility:
Prsnt Wea:
PCPN:
Remarks:
How to read the WebPage